Time;durP1;ratioP1;P1;durP2;ratioP2;P2;SDS_P1;SDS_P2;PMS_P1;PMS_P2;Temp;Humidity;BMP_temperature;BMP_pressure;BME280_temperature;BME280_humidity;BME280_pressure;Samples;Min_cycle;Max_cycle;Signal;HPM_P1;HPM_P2
2022/11/17 00:01:56;;;;;;;18.98;12.52;;;8.50;99.90;;;;;;5035178;28;20084;-86
2022/11/17 00:04:25;;;;;;;19.48;12.82;;;8.60;99.90;;;;;;5018692;28;20130;-91
2022/11/17 00:06:51;;;;;;;21.77;12.48;;;8.60;99.90;;;;;;5035038;28;20091;-81
2022/11/17 00:09:17;;;;;;;18.77;11.35;;;8.60;99.90;;;;;;5002278;28;20134;-85
2022/11/17 00:14:35;;;;;;;17.70;11.85;;;8.50;99.90;;;;;;5020888;28;20060;-82
2022/11/17 00:17:09;;;;;;;17.48;11.98;;;8.60;99.90;;;;;;5019673;28;20106;-81
2022/11/17 00:22:20;;;;;;;17.50;11.80;;;8.60;99.90;;;;;;5034858;28;20080;-85
2022/11/17 00:24:47;;;;;;;19.83;12.30;;;8.60;99.90;;;;;;5017770;28;20094;-83
2022/11/17 00:27:13;;;;;;;21.00;11.60;;;8.60;99.90;;;;;;5018417;28;20470;-81
2022/11/17 00:29:39;;;;;;;20.90;12.23;;;8.50;99.90;;;;;;5001806;28;20045;-79
2022/11/17 00:34:49;;;;;;;21.25;12.25;;;8.50;99.90;;;;;;5023235;28;20061;-86
2022/11/17 00:37:15;;;;;;;17.67;11.27;;;8.50;99.90;;;;;;5038551;28;20566;-85
2022/11/17 00:39:41;;;;;;;17.73;11.45;;;8.80;99.90;;;;;;5005384;28;20045;-86
2022/11/17 00:42:07;;;;;;;16.65;10.68;;;8.40;99.90;;;;;;5021792;28;20047;-79
2022/11/17 00:44:33;;;;;;;17.60;11.75;;;8.90;99.90;;;;;;5005436;28;20183;-83
2022/11/17 00:46:58;;;;;;;17.85;11.30;;;8.30;99.90;;;;;;5021719;28;20405;-80
2022/11/17 00:49:24;;;;;;;16.65;11.23;;;8.30;99.90;;;;;;5021719;28;20048;-83
2022/11/17 00:51:53;;;;;;;16.40;10.85;;;8.30;99.90;;;;;;5038056;28;20052;-78
2022/11/17 00:54:19;;;;;;;19.15;12.13;;;8.30;99.90;;;;;;5021783;28;20099;-87
2022/11/17 00:56:46;;;;;;;17.13;11.63;;;8.30;99.90;;;;;;5021469;28;20049;-85
2022/11/17 00:59:12;;;;;;;19.02;12.18;;;8.20;99.90;;;;;;5021422;28;20036;-82
2022/11/17 01:01:38;;;;;;;16.98;11.60;;;8.20;99.90;;;;;;5021245;28;20491;-83
2022/11/17 01:04:05;;;;;;;17.20;11.93;;;8.20;99.90;;;;;;5021531;28;20045;-88
2022/11/17 01:06:39;;;;;;;19.80;11.63;;;8.30;99.90;;;;;;5021331;28;20396;-78
2022/11/17 01:09:10;;;;;;;17.17;11.90;;;8.20;99.90;;;;;;5021404;28;20041;-82
2022/11/17 01:11:35;;;;;;;17.20;12.05;;;8.20;99.90;;;;;;5021218;28;20048;-82
2022/11/17 01:14:01;;;;;;;16.98;11.02;;;8.20;99.90;;;;;;5024051;28;20049;-83
2022/11/17 01:16:28;;;;;;;17.63;10.60;;;8.20;99.90;;;;;;5040687;28;20435;-80
2022/11/17 01:18:54;;;;;;;16.83;11.13;;;8.10;99.90;;;;;;5040753;28;20044;-80
2022/11/17 01:21:25;;;;;;;17.48;11.52;;;8.10;99.90;;;;;;5024477;28;20396;-84
2022/11/17 01:23:53;;;;;;;16.67;11.10;;;8.10;99.90;;;;;;5040721;28;20052;-81
2022/11/17 01:26:22;;;;;;;17.83;11.13;;;8.10;99.90;;;;;;5040889;28;20049;-82
2022/11/17 01:28:48;;;;;;;15.95;10.18;;;8.10;99.90;;;;;;5057376;28;20040;-80
2022/11/17 01:31:17;;;;;;;17.95;11.23;;;8.10;99.90;;;;;;5040808;28;20488;-83
2022/11/17 01:33:44;;;;;;;18.52;11.10;;;8.10;99.90;;;;;;5040462;28;20101;-83
2022/11/17 01:36:17;;;;;;;16.42;11.25;;;8.00;99.90;;;;;;5040767;28;20056;-82
2022/11/17 01:38:43;;;;;;;20.15;11.15;;;8.00;99.90;;;;;;5040423;28;20045;-81
2022/11/17 01:41:21;;;;;;;16.70;10.95;;;8.50;99.90;;;;;;5057127;28;20063;-83
2022/11/17 01:43:49;;;;;;;18.00;9.93;;;8.00;99.90;;;;;;5056981;28;20131;-82
2022/11/17 01:46:24;;;;;;;20.33;11.07;;;8.10;99.90;;;;;;5055997;28;20131;-79
2022/11/17 01:48:51;;;;;;;16.90;10.98;;;8.50;99.90;;;;;;5040311;28;20485;-86
2022/11/17 01:51:18;;;;;;;17.20;10.18;;;8.10;99.90;;;;;;5024104;28;20051;-84
2022/11/17 01:53:45;;;;;;;18.77;10.18;;;8.00;99.90;;;;;;5023729;28;20047;-86
2022/11/17 01:56:22;;;;;;;16.25;9.48;;;8.10;99.90;;;;;;5056799;28;20053;-83
2022/11/17 01:58:59;;;;;;;16.05;9.57;;;8.00;99.90;;;;;;5039936;28;20496;-81
2022/11/17 02:01:25;;;;;;;16.92;9.85;;;8.50;99.90;;;;;;5040208;28;20484;-81
2022/11/17 02:03:51;;;;;;;17.20;10.70;;;8.10;99.90;;;;;;5040006;28;20041;-78
2022/11/17 02:06:31;;;;;;;17.85;10.18;;;8.20;99.90;;;;;;5056764;28;20101;-82
2022/11/17 02:09:00;;;;;;;15.82;9.57;;;8.10;99.90;;;;;;5039861;28;20044;-83
2022/11/17 02:11:34;;;;;;;14.57;9.77;;;8.10;99.90;;;;;;5056622;28;20374;-87
2022/11/17 02:14:02;;;;;;;16.85;9.98;;;8.40;99.90;;;;;;5039451;28;20409;-82
2022/11/17 02:16:27;;;;;;;15.80;10.60;;;8.10;99.90;;;;;;5023630;28;20057;-84
2022/11/17 02:18:53;;;;;;;15.68;10.65;;;8.20;99.90;;;;;;5023415;28;20051;-80
2022/11/17 02:21:48;;;;;;;19.27;10.38;;;8.20;99.90;;;;;;5023337;28;20048;-81
2022/11/17 02:24:41;;;;;;;16.15;9.73;;;8.20;99.90;;;;;;5005929;28;20135;-82
2022/11/17 02:27:27;;;;;;;14.27;9.40;;;8.20;99.90;;;;;;5056198;28;20048;-82
2022/11/17 02:30:12;;;;;;;16.42;9.52;;;8.20;99.90;;;;;;5008974;28;20063;-85
2022/11/17 02:32:50;;;;;;;15.10;9.40;;;8.20;99.90;;;;;;5039712;28;20060;-79
2022/11/17 02:35:30;;;;;;;19.15;9.70;;;8.20;99.90;;;;;;5056133;28;20044;-83
2022/11/17 02:38:11;;;;;;;15.40;9.60;;;8.20;99.90;;;;;;5056005;28;20040;-85
2022/11/17 02:40:46;;;;;;;15.98;10.35;;;8.20;99.90;;;;;;5039302;28;20045;-79
2022/11/17 02:46:14;;;;;;;17.20;10.63;;;8.20;99.90;;;;;;5055768;28;20048;-79
2022/11/17 02:48:46;;;;;;;15.85;9.95;;;8.20;99.90;;;;;;5039292;28;20053;-84
2022/11/17 02:51:23;;;;;;;17.25;10.02;;;8.20;99.90;;;;;;5039339;28;20044;-83
2022/11/17 02:53:52;;;;;;;17.23;10.40;;;8.70;99.90;;;;;;5039100;28;20052;-84
2022/11/17 02:56:18;;;;;;;19.67;10.57;;;8.20;99.90;;;;;;5055753;28;20049;-80
2022/11/17 02:58:46;;;;;;;16.70;10.02;;;8.30;99.90;;;;;;5055699;28;20044;-81
2022/11/17 03:01:38;;;;;;;15.02;9.95;;;8.20;99.90;;;;;;5038741;28;20044;-85
2022/11/17 03:04:29;;;;;;;14.38;10.45;;;8.10;99.90;;;;;;5038915;28;20158;-83
2022/11/17 03:07:13;;;;;;;16.77;9.27;;;8.10;99.90;;;;;;5038820;28;20045;-81
2022/11/17 03:10:07;;;;;;;13.77;10.50;;;8.10;99.90;;;;;;5039057;28;20496;-86
2022/11/17 03:12:48;;;;;;;14.60;10.20;;;8.10;99.90;;;;;;5038787;28;20052;-78
2022/11/17 03:15:36;;;;;;;15.38;10.65;;;8.10;99.90;;;;;;5038205;28;20106;-79
2022/11/17 03:18:13;;;;;;;14.90;10.00;;;8.10;99.90;;;;;;5055374;28;20060;-82
2022/11/17 03:20:53;;;;;;;13.73;9.88;;;8.00;99.90;;;;;;5055237;28;20052;-79
2022/11/17 03:23:43;;;;;;;14.02;10.15;;;8.10;99.90;;;;;;5055529;28;20135;-85
2022/11/17 03:26:13;;;;;;;15.82;10.32;;;8.00;99.90;;;;;;5038693;28;20060;-78
2022/11/17 03:28:41;;;;;;;13.48;10.13;;;8.60;99.90;;;;;;5055320;28;20521;-80
2022/11/17 03:31:08;;;;;;;17.00;10.85;;;8.00;99.90;;;;;;5055202;28;20050;-82
2022/11/17 03:33:37;;;;;;;17.45;11.77;;;7.90;99.90;;;;;;5055221;28;20091;-83
2022/11/17 03:36:11;;;;;;;17.40;11.40;;;7.90;99.90;;;;;;5038460;28;20048;-83
2022/11/17 03:38:43;;;;;;;18.38;11.27;;;7.90;99.90;;;;;;5038755;28;20543;-81
2022/11/17 03:41:10;;;;;;;16.83;11.15;;;7.90;99.90;;;;;;5038536;28;20103;-81
2022/11/17 03:43:37;;;;;;;17.88;11.40;;;7.80;99.90;;;;;;5055606;28;20435;-79
2022/11/17 03:46:07;;;;;;;18.08;11.45;;;7.80;99.90;;;;;;5055095;28;20048;-84
2022/11/17 03:48:45;;;;;;;16.95;11.10;;;7.80;99.90;;;;;;5038719;28;20052;-89
2022/11/17 03:51:19;;;;;;;17.80;11.23;;;7.80;99.90;;;;;;5038343;28;20084;-83
2022/11/17 03:53:46;;;;;;;16.27;11.07;;;7.70;99.90;;;;;;5055134;28;20052;-85
2022/11/17 03:56:45;;;;;;;19.00;11.98;;;7.70;99.90;;;;;;5021773;28;20049;-84
2022/11/17 03:59:26;;;;;;;20.58;12.75;;;7.70;99.90;;;;;;5038399;28;20048;-81
2022/11/17 04:01:52;;;;;;;18.67;12.02;;;7.70;99.90;;;;;;5055340;28;20040;-79
2022/11/17 04:04:20;;;;;;;19.73;11.52;;;8.50;99.90;;;;;;5038184;28;20055;-85
2022/11/17 04:06:49;;;;;;;17.75;11.15;;;7.60;99.90;;;;;;5054977;28;20055;-88
2022/11/17 04:09:14;;;;;;;18.17;11.90;;;7.60;99.90;;;;;;5024104;28;20393;-87
2022/11/17 04:17:08;;;;;;;17.95;11.38;;;7.60;99.90;;;;;;5044559;28;20048;-90
2022/11/17 04:19:34;;;;;;;20.58;12.18;;;7.60;99.90;;;;;;5042016;28;20451;-83
2022/11/17 04:22:00;;;;;;;18.85;11.32;;;7.60;99.90;;;;;;5025390;28;20048;-82
2022/11/17 04:24:25;;;;;;;17.52;11.63;;;7.50;99.90;;;;;;5058582;28;20481;-80
2022/11/17 04:29:35;;;;;;;18.20;11.82;;;7.50;99.90;;;;;;5058548;28;20477;-82
2022/11/17 04:32:01;;;;;;;18.73;12.25;;;7.50;99.90;;;;;;5058346;28;20045;-85
2022/11/17 04:34:26;;;;;;;18.67;11.70;;;7.40;99.90;;;;;;5009070;28;20041;-84
2022/11/17 04:36:52;;;;;;;21.95;12.18;;;7.40;99.90;;;;;;5025245;28;20044;-86
2022/11/17 04:39:18;;;;;;;18.30;11.35;;;7.40;99.90;;;;;;5039104;28;20405;-87
2022/11/17 04:41:52;;;;;;;21.40;11.77;;;7.40;99.90;;;;;;4701999;28;10000323;-83
2022/11/17 04:44:21;;;;;;;17.55;10.77;;;7.40;99.90;;;;;;5019557;28;20049;-86
2022/11/17 04:46:47;;;;;;;17.35;11.25;;;7.40;99.90;;;;;;5035981;28;20135;-82
2022/11/17 04:49:14;;;;;;;18.42;11.63;;;7.40;99.90;;;;;;5019380;28;20186;-81
2022/11/17 04:51:40;;;;;;;15.02;9.65;;;7.40;99.90;;;;;;5035644;28;20061;-81
2022/11/17 04:54:08;;;;;;;18.00;11.70;;;7.90;99.90;;;;;;5035824;28;20040;-83
2022/11/17 04:56:35;;;;;;;19.38;11.70;;;7.40;99.90;;;;;;5035898;28;20378;-82
2022/11/17 04:59:00;;;;;;;18.75;11.18;;;8.00;99.90;;;;;;5019475;28;20041;-83
2022/11/17 05:01:27;;;;;;;18.23;11.57;;;7.40;99.90;;;;;;5002801;28;20482;-84
2022/11/17 05:03:55;;;;;;;18.13;11.77;;;7.30;99.90;;;;;;5035245;28;20049;-85
2022/11/17 05:06:22;;;;;;;20.42;11.40;;;8.00;99.90;;;;;;5035478;28;20045;-86
2022/11/17 05:08:49;;;;;;;18.35;10.95;;;8.10;99.90;;;;;;5019349;28;20067;-87
2022/11/17 05:14:01;;;;;;;17.27;11.18;;;7.30;99.90;;;;;;5035162;28;20056;-82
2022/11/17 05:19:15;;;;;;;19.42;11.52;;;7.30;99.90;;;;;;5035211;28;20048;-88
2022/11/17 05:21:41;;;;;;;18.48;10.75;;;7.20;99.90;;;;;;5017910;28;20053;-84
2022/11/17 05:24:08;;;;;;;16.38;11.57;;;7.30;99.90;;;;;;5035357;28;20072;-82
2022/11/17 05:26:35;;;;;;;14.18;9.63;;;7.20;99.90;;;;;;5018079;28;20048;-87
2022/11/17 05:29:03;;;;;;;17.83;11.55;;;7.20;99.90;;;;;;5035296;28;20194;-83
2022/11/17 05:31:30;;;;;;;14.95;10.52;;;7.20;99.90;;;;;;5035267;28;20041;-86
2022/11/17 05:33:56;;;;;;;16.65;10.80;;;7.20;99.90;;;;;;5035130;28;20095;-87
2022/11/17 05:36:24;;;;;;;15.88;9.77;;;7.20;99.90;;;;;;5018190;28;20056;-85
2022/11/17 05:38:50;;;;;;;15.48;9.93;;;7.10;99.90;;;;;;5018221;28;20514;-82
2022/11/17 05:41:17;;;;;;;14.80;9.85;;;7.10;99.90;;;;;;5034844;28;20083;-86
2022/11/17 05:43:43;;;;;;;14.77;9.02;;;7.10;99.90;;;;;;5021895;28;20049;-89
2022/11/17 05:46:10;;;;;;;13.77;8.73;;;7.10;99.90;;;;;;5034322;28;20072;-86
2022/11/17 05:48:35;;;;;;;14.40;8.48;;;7.10;99.90;;;;;;5001611;28;20055;-87
2022/11/17 05:51:01;;;;;;;12.90;8.52;;;7.10;99.90;;;;;;5018140;28;20045;-87
2022/11/17 05:53:28;;;;;;;14.00;7.18;;;7.10;99.90;;;;;;5020494;28;20044;-85
2022/11/17 05:56:17;;;;;;;13.80;8.75;;;7.10;99.90;;;;;;5020402;28;20504;-81
2022/11/17 05:58:48;;;;;;;15.82;9.38;;;7.10;99.90;;;;;;5036042;28;20060;-86
2022/11/17 06:01:15;;;;;;;13.10;8.93;;;7.10;99.90;;;;;;5019924;28;20134;-90
2022/11/17 06:03:47;;;;;;;14.48;8.15;;;7.00;99.90;;;;;;5020265;28;20056;-90
2022/11/17 06:06:13;;;;;;;13.40;8.52;;;7.00;99.90;;;;;;5036923;28;20397;-81
2022/11/17 06:08:40;;;;;;;14.40;8.68;;;7.00;99.90;;;;;;5003794;28;20048;-83
2022/11/17 06:11:05;;;;;;;10.98;7.45;;;7.00;99.90;;;;;;5036576;28;20051;-86
2022/11/17 06:13:31;;;;;;;12.60;8.32;;;7.00;99.90;;;;;;5019737;28;20127;-83
2022/11/17 06:16:00;;;;;;;14.45;8.90;;;7.00;99.90;;;;;;5019857;28;20064;-82
2022/11/17 06:18:30;;;;;;;14.43;8.93;;;7.00;99.90;;;;;;5019911;28;20049;-90
2022/11/17 06:20:56;;;;;;;14.27;8.18;;;7.20;99.90;;;;;;5019844;28;20045;-83
2022/11/17 06:23:25;;;;;;;13.38;8.05;;;7.00;99.90;;;;;;5003530;28;20048;-84
2022/11/17 06:25:51;;;;;;;12.35;7.85;;;7.10;99.90;;;;;;5019973;28;20047;-85
2022/11/17 06:28:20;;;;;;;12.30;7.43;;;7.00;99.90;;;;;;5020220;28;20041;-86
2022/11/17 06:30:47;;;;;;;10.20;6.32;;;7.00;99.90;;;;;;5020085;28;20049;-87
2022/11/17 06:33:15;;;;;;;13.70;7.95;;;7.00;99.90;;;;;;5019624;28;20080;-82
2022/11/17 06:35:42;;;;;;;13.55;7.60;;;7.30;99.90;;;;;;5036188;28;20079;-86
2022/11/17 06:38:08;;;;;;;14.40;9.13;;;7.00;99.90;;;;;;5036222;28;20392;-87
2022/11/17 06:40:34;;;;;;;13.30;8.07;;;7.00;99.90;;;;;;5019315;28;20127;-80
2022/11/17 06:43:02;;;;;;;12.13;7.88;;;6.90;99.90;;;;;;5019754;28;20174;-80
2022/11/17 06:45:36;;;;;;;16.30;9.10;;;7.60;99.90;;;;;;5019861;28;20093;-83
2022/11/17 06:48:02;;;;;;;13.98;8.38;;;6.90;99.90;;;;;;5019551;28;20045;-86
2022/11/17 06:50:28;;;;;;;14.88;8.10;;;7.00;99.90;;;;;;5035797;28;20508;-87
2022/11/17 06:52:59;;;;;;;12.45;8.00;;;6.90;99.90;;;;;;5019585;28;20045;-79
2022/11/17 06:55:25;;;;;;;12.73;7.82;;;7.30;99.90;;;;;;5019435;28;20041;-83
2022/11/17 06:57:51;;;;;;;13.57;8.55;;;6.90;99.90;;;;;;5019349;28;20405;-86
2022/11/17 07:00:18;;;;;;;12.38;7.43;;;6.90;99.90;;;;;;5035655;28;20045;-79
2022/11/17 07:02:43;;;;;;;12.73;7.60;;;7.00;99.90;;;;;;5019298;28;20049;-85
2022/11/17 07:05:09;;;;;;;13.48;7.93;;;7.00;99.90;;;;;;5035677;28;20047;-78
2022/11/17 07:07:35;;;;;;;13.20;7.05;;;6.90;99.90;;;;;;5019094;28;20073;-83
2022/11/17 07:10:00;;;;;;;11.57;6.97;;;7.20;99.90;;;;;;5019253;28;20520;-87
2022/11/17 07:12:26;;;;;;;12.35;7.10;;;6.90;99.90;;;;;;5035273;28;20088;-81
2022/11/17 07:14:52;;;;;;;12.88;7.78;;;6.90;99.90;;;;;;5002161;28;20048;-80
2022/11/17 07:17:17;;;;;;;11.90;6.95;;;7.10;99.90;;;;;;5034678;28;20065;-86
2022/11/17 07:19:43;;;;;;;11.15;6.90;;;6.90;99.90;;;;;;5002395;28;20045;-85
2022/11/17 07:22:09;;;;;;;11.70;7.10;;;6.90;99.90;;;;;;5035472;28;20044;-85
2022/11/17 07:24:34;;;;;;;10.40;6.35;;;6.90;99.90;;;;;;5018992;28;20045;-85
2022/11/17 07:27:00;;;;;;;11.02;6.43;;;6.90;99.90;;;;;;5002644;28;20053;-85
2022/11/17 07:29:27;;;;;;;11.25;6.35;;;6.90;99.90;;;;;;5002303;28;20490;-84
2022/11/17 07:31:53;;;;;;;9.85;5.85;;;6.90;99.90;;;;;;5019063;28;20049;-87
2022/11/17 07:34:19;;;;;;;11.38;6.60;;;7.00;99.90;;;;;;5002583;28;20045;-81
2022/11/17 07:36:44;;;;;;;10.63;6.40;;;6.90;99.90;;;;;;5018913;28;20049;-85
2022/11/17 07:39:11;;;;;;;8.68;5.38;;;7.70;99.90;;;;;;5035290;28;20049;-85
2022/11/17 07:41:36;;;;;;;9.60;6.28;;;7.60;99.90;;;;;;5018989;28;20130;-89
2022/11/17 07:44:02;;;;;;;8.40;5.68;;;6.90;99.90;;;;;;5037021;28;20505;-85
2022/11/17 07:46:28;;;;;;;9.80;5.60;;;6.90;99.90;;;;;;5006803;28;20047;-85
2022/11/17 07:48:54;;;;;;;8.82;5.75;;;6.90;99.90;;;;;;5039267;28;20496;-82
2022/11/17 07:51:20;;;;;;;8.52;5.50;;;6.90;99.90;;;;;;5039472;28;20096;-87
2022/11/17 07:53:46;;;;;;;7.75;4.78;;;6.90;99.90;;;;;;5006342;28;20080;-85
2022/11/17 07:56:12;;;;;;;9.13;4.32;;;6.90;99.90;;;;;;5039321;28;20053;-82
2022/11/17 07:58:39;;;;;;;8.48;4.97;;;6.90;99.90;;;;;;5022748;28;20059;-86
2022/11/17 08:01:11;;;;;;;7.32;4.88;;;6.90;99.90;;;;;;5038890;28;20049;-88
2022/11/17 08:03:36;;;;;;;8.15;4.60;;;6.90;99.90;;;;;;5022651;28;20451;-85
2022/11/17 08:06:04;;;;;;;6.10;4.18;;;6.90;99.90;;;;;;5038942;28;20037;-86
2022/11/17 08:08:30;;;;;;;7.03;4.63;;;6.80;99.90;;;;;;5022681;28;20497;-83
2022/11/17 08:10:56;;;;;;;6.78;4.55;;;6.90;99.90;;;;;;5022192;28;20049;-87
2022/11/17 08:13:23;;;;;;;7.00;4.35;;;7.60;99.90;;;;;;5022644;28;20462;-82
2022/11/17 08:15:55;;;;;;;6.95;4.47;;;6.90;99.90;;;;;;5006131;28;20131;-83
2022/11/17 08:18:20;;;;;;;8.35;4.60;;;6.90;99.90;;;;;;5038330;28;20053;-86
2022/11/17 08:20:46;;;;;;;7.13;4.22;;;6.90;99.90;;;;;;5022058;28;20045;-85
2022/11/17 08:23:12;;;;;;;8.52;4.30;;;6.90;99.90;;;;;;5022089;28;20114;-81
2022/11/17 08:25:37;;;;;;;8.00;4.75;;;6.90;99.90;;;;;;5022130;28;20083;-83
2022/11/17 08:28:03;;;;;;;7.45;4.50;;;6.90;99.90;;;;;;5022342;28;20230;-87
2022/11/17 08:30:33;;;;;;;8.73;5.45;;;6.90;99.90;;;;;;5005740;28;20485;-85
2022/11/17 08:32:59;;;;;;;8.20;4.57;;;7.80;99.90;;;;;;5022636;28;20072;-82
2022/11/17 08:35:25;;;;;;;8.20;4.95;;;6.90;99.90;;;;;;5022035;28;20045;-81
2022/11/17 08:37:52;;;;;;;8.38;5.18;;;7.00;99.90;;;;;;5005564;28;20044;-88
2022/11/17 08:40:19;;;;;;;7.95;4.85;;;7.00;99.90;;;;;;5021932;28;20049;-84
2022/11/17 08:42:45;;;;;;;9.95;5.57;;;6.90;99.90;;;;;;5021547;28;20401;-85
2022/11/17 08:45:11;;;;;;;11.90;5.82;;;6.90;99.90;;;;;;5021990;28;20099;-82
2022/11/17 08:47:37;;;;;;;8.43;5.30;;;7.00;99.90;;;;;;5021734;28;20041;-85
2022/11/17 08:50:05;;;;;;;8.57;5.22;;;6.90;99.90;;;;;;5021625;28;20452;-81
2022/11/17 08:52:31;;;;;;;8.68;4.90;;;6.90;99.90;;;;;;5005722;28;20060;-83
2022/11/17 08:54:57;;;;;;;10.25;5.43;;;6.90;99.90;;;;;;5021515;28;20056;-87
2022/11/17 08:57:23;;;;;;;7.93;4.75;;;6.90;99.90;;;;;;5038002;28;20444;-86
2022/11/17 08:59:48;;;;;;;10.25;5.38;;;7.00;99.90;;;;;;5021290;28;20045;-86
2022/11/17 09:02:14;;;;;;;8.68;5.63;;;6.90;99.90;;;;;;5005267;28;20091;-87
2022/11/17 09:04:40;;;;;;;8.75;5.32;;;7.00;99.90;;;;;;5021531;28;20397;-82
2022/11/17 09:07:06;;;;;;;11.32;5.90;;;7.00;99.90;;;;;;5021345;28;20049;-82
2022/11/17 09:09:32;;;;;;;9.57;5.82;;;7.80;99.90;;;;;;5021584;28;20477;-82
2022/11/17 09:11:58;;;;;;;9.80;5.95;;;7.00;99.90;;;;;;5005069;28;20500;-87
2022/11/17 09:14:24;;;;;;;9.43;5.47;;;7.00;99.90;;;;;;5021301;28;20053;-88
2022/11/17 09:16:51;;;;;;;8.85;5.53;;;7.10;99.90;;;;;;5020878;28;20053;-81
2022/11/17 09:19:17;;;;;;;10.00;5.63;;;7.10;99.90;;;;;;5021369;28;20064;-80
2022/11/17 09:21:42;;;;;;;8.73;5.88;;;7.00;99.90;;;;;;5020994;28;20469;-82
2022/11/17 09:24:09;;;;;;;9.52;5.78;;;7.10;99.90;;;;;;5021231;28;20071;-84
2022/11/17 09:26:35;;;;;;;10.13;6.10;;;7.70;99.90;;;;;;5021252;28;20053;-85
2022/11/17 09:29:04;;;;;;;10.43;6.10;;;7.00;99.90;;;;;;5020817;28;20051;-80
2022/11/17 09:31:30;;;;;;;10.40;6.00;;;7.10;99.90;;;;;;5020996;28;20044;-81
2022/11/17 09:33:55;;;;;;;8.98;5.40;;;7.50;99.90;;;;;;5020827;28;20375;-81
2022/11/17 09:36:21;;;;;;;9.73;6.00;;;7.00;99.90;;;;;;5020795;28;20091;-84
2022/11/17 09:38:47;;;;;;;9.07;5.78;;;7.00;99.90;;;;;;5037144;28;20052;-83
2022/11/17 09:41:25;;;;;;;11.30;7.10;;;7.20;99.90;;;;;;5004178;28;20045;-84
2022/11/17 09:43:55;;;;;;;10.05;6.30;;;7.00;99.90;;;;;;5019996;28;20045;-86
2022/11/17 09:46:45;;;;;;;11.23;6.35;;;7.50;99.90;;;;;;5037252;28;20059;-84
2022/11/17 09:49:56;;;;;;;10.10;5.82;;;7.00;99.90;;;;;;5016528;28;20408;-83
2022/11/17 09:52:28;;;;;;;9.57;5.93;;;7.00;99.90;;;;;;4996370;28;20054;-84
2022/11/17 09:54:56;;;;;;;10.23;6.13;;;7.00;99.90;;;;;;5013349;28;20060;-84
2022/11/17 09:57:28;;;;;;;12.23;7.45;;;7.00;99.90;;;;;;5020707;28;20049;-84
2022/11/17 10:00:05;;;;;;;10.43;6.30;;;7.00;99.90;;;;;;5020132;28;20045;-86
2022/11/17 10:02:31;;;;;;;9.25;6.25;;;7.00;99.90;;;;;;5020368;28;20044;-84
2022/11/17 10:05:00;;;;;;;10.55;6.43;;;7.00;99.90;;;;;;5036673;28;20053;-83
2022/11/17 10:07:29;;;;;;;10.35;6.40;;;7.00;99.90;;;;;;5019691;28;20053;-83
2022/11/17 10:09:55;;;;;;;10.70;6.03;;;7.00;99.90;;;;;;5019789;28;20045;-81
2022/11/17 10:12:25;;;;;;;10.95;6.25;;;7.00;99.90;;;;;;5019982;28;20043;-81
2022/11/17 10:14:53;;;;;;;9.25;6.07;;;7.00;99.90;;;;;;5036282;28;20128;-82
2022/11/17 10:17:18;;;;;;;10.15;6.38;;;7.50;99.90;;;;;;5020206;28;20096;-82
2022/11/17 10:19:45;;;;;;;11.57;6.88;;;7.00;99.90;;;;;;5003655;28;20454;-84
2022/11/17 10:22:29;;;;;;;9.63;5.82;;;7.10;99.90;;;;;;5018257;28;20064;-86
2022/11/17 10:24:57;;;;;;;12.43;6.80;;;7.40;99.90;;;;;;5019196;28;20220;-83
2022/11/17 10:27:28;;;;;;;10.18;6.43;;;7.30;99.90;;;;;;5017055;28;20154;-85
2022/11/17 10:29:59;;;;;;;;;;;7.00;99.90;;;;;;5034652;28;20052;-84
2022/11/17 10:32:27;;;;;;;10.57;6.40;;;6.90;99.90;;;;;;4671444;28;9999877;-81
2022/11/17 10:34:53;;;;;;;9.75;6.22;;;6.90;99.90;;;;;;5033643;28;20045;-85
2022/11/17 10:37:30;;;;;;;11.50;6.68;;;6.90;99.90;;;;;;5016750;28;20090;-82
2022/11/17 10:40:11;;;;;;;10.43;6.22;;;7.00;99.90;;;;;;5033586;28;20041;-83
2022/11/17 10:42:37;;;;;;;11.13;6.55;;;6.90;99.90;;;;;;5034065;28;20049;-82
2022/11/17 10:45:04;;;;;;;11.20;6.30;;;7.00;99.90;;;;;;5017041;28;20056;-80
2022/11/17 10:47:39;;;;;;;12.30;6.78;;;6.90;99.90;;;;;;5017096;28;20056;-82
2022/11/17 10:50:11;;;;;;;13.70;7.25;;;6.90;99.90;;;;;;5000138;28;20037;-80
2022/11/17 10:52:37;;;;;;;12.68;7.15;;;6.90;99.90;;;;;;5033830;28;20040;-82
2022/11/17 10:55:30;;;;;;;11.43;6.97;;;6.90;99.90;;;;;;5033408;28;20049;-80
2022/11/17 10:58:01;;;;;;;11.88;7.32;;;7.00;99.90;;;;;;5033620;28;20127;-80
2022/11/17 11:00:31;;;;;;;13.73;8.07;;;7.00;99.90;;;;;;5017018;28;20052;-81
2022/11/17 11:03:20;;;;;;;13.40;8.25;;;7.00;99.90;;;;;;5033075;28;20485;-82
2022/11/17 11:06:19;;;;;;;12.40;7.53;;;7.10;99.90;;;;;;5033469;28;20375;-85
2022/11/17 11:09:07;;;;;;;12.07;7.35;;;7.00;99.90;;;;;;5033502;28;20106;-82
2022/11/17 11:11:42;;;;;;;11.82;7.35;;;7.10;99.90;;;;;;4997409;28;20059;-88
2022/11/17 11:14:16;;;;;;;15.90;8.48;;;7.10;99.90;;;;;;5013320;28;20116;-86
2022/11/17 11:16:46;;;;;;;13.75;8.70;;;7.00;99.90;;;;;;5013334;28;20095;-81
2022/11/17 11:19:14;;;;;;;13.13;8.20;;;7.50;99.90;;;;;;4996145;28;20448;-85
2022/11/17 11:21:59;;;;;;;12.85;8.18;;;7.70;99.90;;;;;;5013586;28;20465;-82
2022/11/17 11:24:47;;;;;;;13.70;8.32;;;7.10;99.90;;;;;;5013405;28;20057;-83
2022/11/17 11:27:44;;;;;;;18.27;8.60;;;7.20;99.90;;;;;;5012918;28;20131;-81
2022/11/17 11:30:14;;;;;;;14.63;8.07;;;7.10;99.90;;;;;;5010290;28;20119;-82
2022/11/17 11:32:54;;;;;;;13.20;8.50;;;7.10;99.90;;;;;;5010143;28;20409;-83
2022/11/17 11:35:31;;;;;;;14.32;8.90;;;7.20;99.90;;;;;;5033069;28;20048;-84
2022/11/17 11:39:08;;;;;;;14.68;8.75;;;7.20;99.90;;;;;;5016412;28;20044;-85
2022/11/17 11:42:04;;;;;;;13.02;8.45;;;7.20;99.90;;;;;;4951139;28;20125;-85
2022/11/17 11:44:52;;;;;;;14.18;7.70;;;7.20;99.90;;;;;;4956807;28;20058;-82
2022/11/17 11:47:41;;;;;;;12.95;8.50;;;7.30;99.90;;;;;;5021793;28;20061;-82
2022/11/17 11:50:19;;;;;;;13.13;8.32;;;7.20;99.90;;;;;;5032509;28;20044;-87
2022/11/17 11:52:50;;;;;;;13.32;8.10;;;7.20;99.90;;;;;;5033033;28;20052;-83
2022/11/17 11:55:29;;;;;;;15.10;8.63;;;7.20;99.90;;;;;;5032965;28;20357;-83
2022/11/17 11:58:22;;;;;;;13.25;8.50;;;7.30;99.90;;;;;;5033074;28;20292;-87
2022/11/17 12:00:57;;;;;;;15.85;9.35;;;7.30;99.90;;;;;;5016266;28;20045;-85
2022/11/17 12:03:22;;;;;;;14.18;8.68;;;7.20;99.90;;;;;;5032282;28;20409;-82
2022/11/17 12:06:48;;;;;;;12.85;8.30;;;8.00;99.90;;;;;;5032751;28;20049;-86
2022/11/17 12:08:59;;;;;;;17.13;9.35;;;7.20;99.90;;;;;;5020576;28;20497;-82
2022/11/17 12:14:21;;;;;;;16.80;9.07;;;7.20;99.90;;;;;;5016710;28;20049;-84
2022/11/17 12:16:47;;;;;;;14.13;8.00;;;7.20;99.90;;;;;;5015701;28;20057;-82
2022/11/17 12:19:52;;;;;;;13.07;8.50;;;7.20;99.90;;;;;;5015690;28;20103;-83
2022/11/17 12:22:18;;;;;;;14.90;9.00;;;7.30;99.90;;;;;;5015546;28;20045;-85
2022/11/17 12:24:44;;;;;;;15.30;8.30;;;7.20;99.90;;;;;;5032071;28;20157;-83
2022/11/17 12:27:31;;;;;;;13.73;8.35;;;7.40;99.90;;;;;;4982551;28;20086;-86
2022/11/17 12:29:56;;;;;;;12.95;7.97;;;7.20;99.90;;;;;;5016784;28;20047;-86
2022/11/17 12:32:47;;;;;;;13.57;8.43;;;7.20;99.90;;;;;;5018794;28;20052;-82
2022/11/17 12:35:35;;;;;;;14.25;8.20;;;7.20;99.90;;;;;;5035625;28;20068;-85
2022/11/17 12:38:16;;;;;;;12.30;7.97;;;7.20;99.90;;;;;;5035167;28;20553;-86
2022/11/17 12:40:44;;;;;;;11.57;7.45;;;7.20;99.90;;;;;;5019410;28;20084;-84
2022/11/17 12:43:16;;;;;;;12.07;7.75;;;7.20;99.90;;;;;;5019385;28;20045;-83
2022/11/17 12:46:13;;;;;;;12.75;7.38;;;7.30;99.90;;;;;;5035909;28;20049;-82
2022/11/17 12:48:56;;;;;;;12.07;7.53;;;7.30;99.90;;;;;;5035986;28;20056;-86
2022/11/17 12:51:58;;;;;;;12.30;7.95;;;7.30;99.90;;;;;;5018854;28;20049;-81
2022/11/17 12:54:36;;;;;;;13.38;8.15;;;7.30;99.90;;;;;;5035628;28;20045;-83
2022/11/17 12:57:18;;;;;;;12.70;7.97;;;7.80;99.90;;;;;;5035687;28;20049;-88
2022/11/17 13:00:08;;;;;;;11.18;7.50;;;7.40;99.90;;;;;;5019206;28;20049;-86
2022/11/17 13:03:08;;;;;;;13.35;8.80;;;7.40;99.90;;;;;;5018502;28;20135;-89
2022/11/17 13:05:34;;;;;;;11.85;8.02;;;7.40;99.90;;;;;;5012409;28;20099;-82
2022/11/17 13:08:12;;;;;;;11.60;7.68;;;7.40;99.90;;;;;;5018854;28;20056;-82
2022/11/17 13:10:38;;;;;;;12.43;8.00;;;7.40;99.90;;;;;;5035433;28;20045;-84
2022/11/17 13:13:18;;;;;;;10.77;7.35;;;7.40;99.90;;;;;;5035689;28;20094;-82
2022/11/17 13:15:47;;;;;;;12.73;7.22;;;7.40;99.90;;;;;;5019193;28;20071;-84
2022/11/17 13:18:29;;;;;;;12.40;7.97;;;7.50;99.90;;;;;;5015170;28;20058;-84
2022/11/17 13:20:55;;;;;;;13.32;7.53;;;7.50;99.90;;;;;;5015510;28;20092;-83
2022/11/17 13:23:23;;;;;;;11.90;7.85;;;7.50;99.90;;;;;;4999053;28;20061;-81
2022/11/17 13:25:49;;;;;;;13.27;7.90;;;7.50;99.90;;;;;;5031645;28;20076;-84
2022/11/17 13:28:30;;;;;;;11.27;7.28;;;7.50;99.90;;;;;;4998752;28;20057;-83
2022/11/17 13:30:57;;;;;;;9.98;7.25;;;7.50;99.90;;;;;;5015686;28;20049;-88
2022/11/17 13:33:24;;;;;;;10.73;7.57;;;7.50;99.90;;;;;;5031403;28;20045;-82
2022/11/17 13:36:26;;;;;;;11.40;7.43;;;7.50;99.90;;;;;;5015698;28;20049;-83